Главная страница
METAR-TAF:

METAR-TAF

Аэропорты :

Саннесшёэн, Норвегия

широта: 65-58N, долгота: 012-28E, высота над уровнем моря: 1 м

Текущие метеонаблюдения

Эта сводка был подготовлена 36 минут назад, в 19:20 UTC
Ветер 17 Узел от южный
Температура 10°C
Влажность 93%
Давление 1017 hPa
Видимость: 5000 м
Отдельные облака на высоте 300 фута
Рассеянная облачность на высоте 500 фута
дождь, Морось

METAR: ENST 151920Z 19017KT 5000 RADZ SCT003 BKN005 10/09 Q1017 RMK WIND 300FT 19021KT

Время: 20:56 (19:56 UTC)


TAF: отсутствует

Метеонаблюдения и прогнозы для более 4000 аэропортов (сводки METAR и TAF).

Имеющиеся станции представлены на карте желтыми и красными точками.

Чтобы увидеть название станции, наведите на нее мышь.

Затем щелкните, чтобы увидеть метеонаблюдения и метеопрогнозы.

Управление картой: чтобы увеличить масштаб, щелкните зеленые кнопки с черным крестиком; чтобы уменьшить масштаб, щелкните зеленую кнопку с тире; для просмотра соседних карт щелкайте зеленые стрелки.


METAR-TAF: